createdAt,value
2023-01-13T00:08:01.570Z,6.62
2023-01-13T00:28:04.243Z,6.71
2023-01-13T00:48:06.971Z,6.72
2023-01-13T01:08:09.544Z,6.96
2023-01-13T01:28:12.443Z,6.93
2023-01-13T01:48:15.056Z,6.83
2023-01-13T02:08:18.662Z,6.82
2023-01-13T02:28:21.683Z,6.76
2023-01-13T02:48:24.240Z,6.26
2023-01-13T03:08:26.840Z,5.96
2023-01-13T03:28:29.803Z,5.46
2023-01-13T03:48:33.490Z,6.41
2023-01-13T04:08:36.159Z,6.46
2023-01-13T04:28:38.937Z,6.66
2023-01-13T04:48:41.897Z,6.88
2023-01-13T05:08:44.614Z,7.19
2023-01-13T05:28:47.115Z,7.36
2023-01-13T05:48:49.608Z,7.51
2023-01-13T06:08:52.236Z,7.36
2023-01-13T06:28:54.953Z,7.36
2023-01-13T06:48:57.464Z,7.54
2023-01-13T07:09:00.560Z,7.49
2023-01-13T07:29:03.138Z,7.79
2023-01-13T07:49:05.729Z,7.60
2023-01-13T08:09:08.401Z,7.50
2023-01-13T08:29:13.684Z,8.05
2023-01-13T08:49:17.271Z,8.21
2023-01-13T09:09:19.955Z,8.53
2023-01-13T09:29:22.522Z,8.84
2023-01-13T09:49:25.149Z,9.82
2023-01-13T10:09:27.928Z,10.08
2023-01-13T10:29:30.540Z,10.17
2023-01-13T10:49:34.002Z,10.60
2023-01-13T11:09:36.748Z,10.65
2023-01-13T11:29:39.516Z,11.28
2023-01-13T11:49:42.079Z,11.26
2023-01-13T12:09:45.715Z,11.14
2023-01-13T12:29:51.275Z,10.69
2023-01-13T12:49:54.036Z,10.80
2023-01-13T13:09:56.449Z,10.38
2023-01-13T13:29:58.912Z,10.40
2023-01-13T13:50:02.634Z,10.28
2023-01-13T14:10:06.097Z,10.21
2023-01-13T14:30:08.795Z,9.95
2023-01-13T14:50:11.259Z,9.50
2023-01-13T15:10:13.673Z,8.92
2023-01-13T15:30:16.323Z,9.23
2023-01-13T16:10:35.101Z,8.71
2023-01-13T16:30:37.608Z,8.58
2023-01-13T16:50:43.129Z,8.52
2023-01-13T17:10:48.593Z,8.60
2023-01-13T17:30:51.115Z,8.55
2023-01-13T17:50:54.791Z,8.68
2023-01-13T18:11:01.446Z,8.43
2023-01-13T18:31:04.083Z,8.35
2023-01-13T18:51:06.775Z,8.09
2023-01-13T19:11:09.660Z,8.07
2023-01-13T19:31:12.613Z,7.92
2023-01-13T19:51:15.729Z,7.78
2023-01-13T20:11:25.039Z,7.80
2023-01-13T20:31:27.963Z,7.45
2023-01-13T20:51:30.420Z,7.42
2023-01-13T21:11:51.853Z,7.27
2023-01-13T21:31:55.526Z,7.07
2023-01-13T21:51:58.825Z,7.18
2023-01-13T22:12:02.700Z,7.05
2023-01-13T22:32:05.401Z,7.11
2023-01-13T22:52:09.359Z,6.98
2023-01-13T23:12:11.947Z,6.46
2023-01-13T23:32:14.402Z,6.39
2023-01-13T23:52:17.099Z,6.11
